createdAt,value
2022-12-25T00:01:16.534Z,11.28
2022-12-25T00:03:46.982Z,11.30
2022-12-25T00:06:18.927Z,11.49
2022-12-25T00:08:47.582Z,11.48
2022-12-25T00:11:19.867Z,11.30
2022-12-25T00:13:49.284Z,11.29
2022-12-25T00:16:21.253Z,11.54
2022-12-25T00:18:51.862Z,11.66
2022-12-25T00:21:21.753Z,11.46
2022-12-25T00:23:57.082Z,11.78
2022-12-25T00:26:26.945Z,12.04
2022-12-25T00:28:56.538Z,12.12
2022-12-25T00:31:26.994Z,11.77
2022-12-25T00:33:57.164Z,11.92
2022-12-25T00:36:25.882Z,11.52
2022-12-25T00:38:55.083Z,11.84
2022-12-25T00:41:40.323Z,12.20
2022-12-25T00:44:10.340Z,11.94
2022-12-25T00:46:39.328Z,11.45
2022-12-25T00:49:11.294Z,11.83
2022-12-25T00:51:41.560Z,11.78
2022-12-25T00:54:11.274Z,11.67
2022-12-25T00:56:40.166Z,11.87
2022-12-25T00:59:08.737Z,11.73
2022-12-25T01:01:40.448Z,11.70
2022-12-25T01:04:11.680Z,11.87
2022-12-25T01:06:40.708Z,11.83
2022-12-25T01:09:27.211Z,11.82
2022-12-25T01:11:55.763Z,12.00
2022-12-25T01:14:25.529Z,11.98
2022-12-25T01:16:54.258Z,11.43
2022-12-25T01:19:25.752Z,12.20
2022-12-25T01:21:54.391Z,12.04
2022-12-25T01:24:23.209Z,12.15
2022-12-25T01:26:51.860Z,12.09
2022-12-25T01:29:22.636Z,12.01
2022-12-25T01:31:51.469Z,12.06
2022-12-25T01:34:19.954Z,12.77
2022-12-25T01:36:53.341Z,12.32
2022-12-25T01:39:25.588Z,12.56
2022-12-25T01:41:54.527Z,12.58
2022-12-25T01:45:39.012Z,12.58
2022-12-25T01:48:15.806Z,12.29
2022-12-25T01:50:53.017Z,12.19
2022-12-25T01:53:23.395Z,12.44
2022-12-25T01:55:56.448Z,12.75
2022-12-25T01:58:26.035Z,12.67
2022-12-25T02:00:55.263Z,12.72
2022-12-25T02:03:24.864Z,12.36
2022-12-25T02:05:53.878Z,12.34
2022-12-25T02:08:24.771Z,12.41
2022-12-25T02:10:53.092Z,11.99
2022-12-25T02:13:22.070Z,12.36
2022-12-25T02:16:02.134Z,12.80
2022-12-25T02:18:38.740Z,12.74
2022-12-25T02:21:45.550Z,12.89
2022-12-25T02:24:51.069Z,12.89
2022-12-25T02:28:02.263Z,12.46
2022-12-25T02:30:36.867Z,12.45
2022-12-25T02:33:32.940Z,12.55
2022-12-25T02:36:08.482Z,12.39
2022-12-25T02:39:00.166Z,12.26
2022-12-25T02:41:30.620Z,12.29
2022-12-25T02:44:22.422Z,12.48
2022-12-25T02:47:08.993Z,12.32
2022-12-25T02:49:56.187Z,12.09
2022-12-25T02:52:44.321Z,12.47
2022-12-25T02:55:34.828Z,11.82
2022-12-25T02:58:28.409Z,12.25
2022-12-25T03:01:24.103Z,11.99
2022-12-25T03:04:14.148Z,12.24
2022-12-25T03:06:44.314Z,12.29
2022-12-25T03:09:34.422Z,11.87
2022-12-25T03:12:11.174Z,12.19
2022-12-25T03:14:59.419Z,12.25
2022-12-25T03:17:30.461Z,12.40
2022-12-25T03:20:17.352Z,12.31
2022-12-25T03:23:04.921Z,11.90
2022-12-25T03:25:50.993Z,11.98
2022-12-25T03:28:19.582Z,11.75
2022-12-25T03:31:14.141Z,11.89
2022-12-25T03:34:30.756Z,11.55
2022-12-25T03:37:25.959Z,11.57
2022-12-25T03:40:22.604Z,11.74
2022-12-25T03:43:16.903Z,11.79
2022-12-25T03:46:09.283Z,12.10
2022-12-25T03:49:01.277Z,11.86
2022-12-25T03:51:54.338Z,11.90
2022-12-25T03:54:45.442Z,11.84
2022-12-25T03:57:32.894Z,12.05
2022-12-25T04:00:23.885Z,11.68
2022-12-25T04:03:09.678Z,11.96
2022-12-25T04:05:55.651Z,12.22
2022-12-25T04:08:43.001Z,12.23
2022-12-25T04:11:29.034Z,11.95
2022-12-25T04:14:23.278Z,12.36
2022-12-25T04:17:09.079Z,12.46
2022-12-25T04:19:54.649Z,12.53
2022-12-25T04:22:51.980Z,12.14
2022-12-25T04:25:39.438Z,12.47
2022-12-25T04:28:25.295Z,12.34
2022-12-25T04:31:11.727Z,12.56
2022-12-25T04:33:57.719Z,12.57
2022-12-25T04:36:26.207Z,12.82
2022-12-25T04:38:54.697Z,12.36
2022-12-25T04:41:24.421Z,12.41
2022-12-25T04:43:52.943Z,12.14
2022-12-25T04:46:21.412Z,12.10
2022-12-25T04:48:49.881Z,11.82
2022-12-25T04:51:20.657Z,12.38
2022-12-25T04:53:50.868Z,12.67
2022-12-25T04:56:20.746Z,12.41
2022-12-25T04:58:50.694Z,12.46
2022-12-25T05:01:19.290Z,12.92
2022-12-25T05:03:47.793Z,12.60
2022-12-25T05:06:16.316Z,12.03
2022-12-25T05:08:44.864Z,12.53
2022-12-25T05:11:16.832Z,12.56
2022-12-25T05:13:45.838Z,12.84
2022-12-25T05:16:18.340Z,12.56
2022-12-25T05:18:49.325Z,12.43
2022-12-25T05:21:18.095Z,12.98
2022-12-25T05:23:49.589Z,12.50
2022-12-25T05:26:21.096Z,12.79
2022-12-25T05:28:50.451Z,12.91
2022-12-25T05:31:21.435Z,12.46
2022-12-25T05:33:53.025Z,12.53
2022-12-25T05:36:21.879Z,12.39
2022-12-25T05:38:51.112Z,12.23
2022-12-25T05:41:20.015Z,12.31
2022-12-25T05:43:48.797Z,12.80
2022-12-25T05:46:18.004Z,12.46
2022-12-25T05:48:48.416Z,12.81
2022-12-25T05:51:20.146Z,13.02
2022-12-25T05:53:48.859Z,12.66
2022-12-25T05:56:17.169Z,12.90
2022-12-25T05:58:45.701Z,12.41
2022-12-25T06:01:17.922Z,12.19
2022-12-25T06:03:49.098Z,12.57
2022-12-25T06:06:17.522Z,12.18
2022-12-25T06:08:46.174Z,12.67
2022-12-25T06:11:17.031Z,12.47
2022-12-25T06:13:45.498Z,12.98
2022-12-25T06:16:14.439Z,12.60
2022-12-25T06:18:45.859Z,12.31
2022-12-25T06:21:20.079Z,12.74
2022-12-25T06:23:49.437Z,12.59
2022-12-25T06:26:23.392Z,12.12
2022-12-25T06:28:52.328Z,12.68
2022-12-25T06:31:24.218Z,12.90
2022-12-25T06:33:53.246Z,12.25
2022-12-25T06:36:25.818Z,12.14
2022-12-25T06:39:01.674Z,12.53
2022-12-25T06:41:32.063Z,12.92
2022-12-25T06:44:02.673Z,12.77
2022-12-25T06:46:32.220Z,12.47
2022-12-25T06:49:01.638Z,12.88
2022-12-25T06:51:33.296Z,12.65
2022-12-25T06:54:04.022Z,12.84
2022-12-25T06:56:34.327Z,12.76
2022-12-25T06:59:05.731Z,12.54
2022-12-25T07:01:39.011Z,12.41
2022-12-25T07:04:13.380Z,11.93
2022-12-25T07:06:44.226Z,12.26
2022-12-25T07:09:13.060Z,12.86
2022-12-25T07:11:41.440Z,12.95
2022-12-25T07:14:21.824Z,12.32
2022-12-25T07:16:52.655Z,12.48
2022-12-25T07:19:21.154Z,12.83
2022-12-25T07:21:50.985Z,12.43
2022-12-25T07:24:21.644Z,13.04
2022-12-25T07:26:53.319Z,12.52
2022-12-25T07:29:22.045Z,12.80
2022-12-25T07:31:51.338Z,12.58
2022-12-25T07:34:20.648Z,13.11
2022-12-25T07:36:50.875Z,12.36
2022-12-25T07:39:19.507Z,12.49
2022-12-25T07:41:48.873Z,12.82
2022-12-25T07:44:19.646Z,12.78
2022-12-25T07:46:48.596Z,12.95
2022-12-25T07:49:17.280Z,12.65
2022-12-25T07:51:45.687Z,12.87
2022-12-25T07:54:15.908Z,12.87
2022-12-25T07:56:44.548Z,13.18
2022-12-25T07:59:13.087Z,13.07
2022-12-25T08:01:41.564Z,12.97
2022-12-25T08:04:11.760Z,13.00
2022-12-25T08:06:40.987Z,12.62
2022-12-25T08:09:11.621Z,13.05
2022-12-25T08:11:47.054Z,12.91
2022-12-25T08:14:17.253Z,13.06
2022-12-25T08:16:47.400Z,12.65
2022-12-25T08:19:16.293Z,12.68
2022-12-25T08:21:45.073Z,12.69
2022-12-25T08:24:13.451Z,12.94
2022-12-25T08:26:43.430Z,12.76
2022-12-25T08:29:12.671Z,12.61
2022-12-25T08:31:46.463Z,12.67
2022-12-25T08:34:15.846Z,12.48
2022-12-25T08:36:44.631Z,12.43
2022-12-25T08:39:15.104Z,12.06
2022-12-25T08:41:45.993Z,12.52
2022-12-25T08:44:15.059Z,12.67
2022-12-25T08:46:44.445Z,12.25
2022-12-25T08:49:13.619Z,12.19
2022-12-25T08:51:42.438Z,12.55
2022-12-25T08:54:11.282Z,12.54
2022-12-25T08:56:40.195Z,12.43
2022-12-25T08:59:11.849Z,12.45
2022-12-25T09:01:41.127Z,12.38
2022-12-25T09:04:10.337Z,12.05
2022-12-25T09:06:39.772Z,12.64
2022-12-25T09:09:11.609Z,12.63
2022-12-25T09:11:40.405Z,12.75
2022-12-25T09:14:10.911Z,12.04
2022-12-25T09:16:39.892Z,13.00
2022-12-25T09:19:08.781Z,12.56
2022-12-25T09:21:37.906Z,12.91
2022-12-25T09:24:07.400Z,12.75
2022-12-25T09:26:35.983Z,13.04
2022-12-25T09:29:04.655Z,13.12
2022-12-25T09:31:34.931Z,12.53
2022-12-25T09:34:03.712Z,12.57
2022-12-25T09:36:35.587Z,12.58
2022-12-25T09:39:05.044Z,12.70
2022-12-25T09:41:39.475Z,12.23
2022-12-25T09:44:12.582Z,12.36
2022-12-25T09:46:53.276Z,12.57
2022-12-25T09:49:29.497Z,12.44
2022-12-25T09:52:04.366Z,12.95
2022-12-25T09:54:43.547Z,12.41
2022-12-25T09:57:15.321Z,12.55
2022-12-25T09:59:47.682Z,12.38
2022-12-25T10:03:07.688Z,12.79
2022-12-25T10:05:57.062Z,12.59
2022-12-25T10:08:59.596Z,12.56
2022-12-25T10:11:44.581Z,12.49
2022-12-25T10:14:26.902Z,12.51
2022-12-25T10:17:12.986Z,12.70
2022-12-25T10:19:52.045Z,12.81
2022-12-25T10:22:28.690Z,12.54
2022-12-25T10:25:00.142Z,12.81
2022-12-25T10:27:33.686Z,12.58
2022-12-25T10:30:14.491Z,12.59
2022-12-25T10:32:48.920Z,12.60
2022-12-25T10:35:27.704Z,12.82
2022-12-25T10:38:04.268Z,13.30
2022-12-25T10:40:45.593Z,13.10
2022-12-25T10:43:20.033Z,13.05
2022-12-25T10:45:51.121Z,12.75
2022-12-25T10:48:26.583Z,12.51
2022-12-25T10:50:57.891Z,13.15
2022-12-25T10:53:32.398Z,12.82
2022-12-25T10:56:04.370Z,13.37
2022-12-25T10:58:35.341Z,13.25
2022-12-25T11:01:06.896Z,13.09
2022-12-25T11:03:39.298Z,12.71
2022-12-25T11:06:25.575Z,13.15
2022-12-25T11:09:01.398Z,13.27
2022-12-25T11:11:31.347Z,13.18
2022-12-25T11:14:03.434Z,13.11
2022-12-25T11:16:36.552Z,12.88
2022-12-25T11:19:24.045Z,12.75
2022-12-25T11:21:56.879Z,13.40
2022-12-25T11:24:30.528Z,13.08
2022-12-25T11:27:02.863Z,12.73
2022-12-25T11:29:45.161Z,12.60
2022-12-25T11:32:23.958Z,12.98
2022-12-25T11:34:54.816Z,13.29
2022-12-25T11:37:32.085Z,13.03
2022-12-25T11:40:01.256Z,12.50
2022-12-25T11:42:37.749Z,13.46
2022-12-25T11:45:12.612Z,12.86
2022-12-25T11:47:47.380Z,13.03
2022-12-25T11:50:27.060Z,13.09
2022-12-25T11:53:01.272Z,13.49
2022-12-25T11:55:41.191Z,13.42
2022-12-25T11:58:19.648Z,13.56
2022-12-25T12:00:51.521Z,13.55
2022-12-25T12:03:27.183Z,13.49
2022-12-25T12:06:00.456Z,12.84
2022-12-25T12:08:32.941Z,13.36
2022-12-25T12:11:20.121Z,13.21
2022-12-25T12:14:21.069Z,13.21
2022-12-25T12:16:50.314Z,13.47
2022-12-25T12:19:35.082Z,13.51
2022-12-25T12:22:05.783Z,12.69
2022-12-25T12:24:40.320Z,12.75
2022-12-25T12:27:26.616Z,13.38
2022-12-25T12:30:01.610Z,13.09
2022-12-25T12:32:49.575Z,12.76
2022-12-25T12:35:29.061Z,13.22
2022-12-25T12:38:01.222Z,12.95
2022-12-25T12:40:37.640Z,12.56
2022-12-25T12:43:08.892Z,13.05
2022-12-25T12:45:39.685Z,13.34
2022-12-25T12:48:17.733Z,12.45
2022-12-25T12:50:46.733Z,13.21
2022-12-25T12:53:32.279Z,13.33
2022-12-25T12:56:15.305Z,13.26
2022-12-25T12:58:50.094Z,12.99
2022-12-25T13:01:54.722Z,13.04
2022-12-25T13:04:53.784Z,13.07
2022-12-25T13:07:48.645Z,13.08
2022-12-25T13:10:30.837Z,13.10
2022-12-25T13:13:06.285Z,12.87
2022-12-25T13:15:36.447Z,12.84
2022-12-25T13:18:08.046Z,12.83
2022-12-25T13:20:47.023Z,13.33
2022-12-25T13:23:27.889Z,13.35
2022-12-25T13:25:58.899Z,12.81
2022-12-25T13:28:34.636Z,12.33
2022-12-25T13:31:07.076Z,12.70
2022-12-25T13:33:36.766Z,12.24
2022-12-25T13:36:11.406Z,12.76
2022-12-25T13:38:45.219Z,12.32
2022-12-25T13:41:38.071Z,12.25
2022-12-25T13:44:20.706Z,12.48
2022-12-25T13:46:49.540Z,12.62
2022-12-25T13:49:20.720Z,12.28
2022-12-25T13:51:51.626Z,12.49
2022-12-25T13:54:20.817Z,12.60
2022-12-25T13:56:51.983Z,12.43
2022-12-25T13:59:26.810Z,12.30
2022-12-25T14:01:57.825Z,12.41
2022-12-25T14:04:26.731Z,12.09
2022-12-25T14:06:55.452Z,12.30
2022-12-25T14:09:24.511Z,12.89
2022-12-25T14:11:54.838Z,12.59
2022-12-25T14:14:26.853Z,12.46
2022-12-25T14:17:01.298Z,12.89
2022-12-25T14:19:32.694Z,12.75
2022-12-25T14:22:04.634Z,12.82
2022-12-25T14:24:35.827Z,12.68
2022-12-25T14:27:18.192Z,12.30
2022-12-25T14:29:50.603Z,12.16
2022-12-25T14:32:22.832Z,12.60
2022-12-25T14:34:56.438Z,12.68
2022-12-25T14:37:30.896Z,12.30
2022-12-25T14:40:05.197Z,12.31
2022-12-25T14:42:37.675Z,12.78
2022-12-25T14:45:27.780Z,12.35
2022-12-25T14:48:00.578Z,12.38
2022-12-25T14:50:33.446Z,12.64
2022-12-25T14:53:04.663Z,12.72
2022-12-25T14:55:33.789Z,12.41
2022-12-25T14:58:07.899Z,12.39
2022-12-25T15:00:40.425Z,12.50
2022-12-25T15:03:24.805Z,12.39
2022-12-25T15:06:01.726Z,12.95
2022-12-25T15:08:33.245Z,12.48
2022-12-25T15:11:05.892Z,12.69
2022-12-25T15:13:36.850Z,12.45
2022-12-25T15:16:15.691Z,12.40
2022-12-25T15:18:46.952Z,12.90
2022-12-25T15:21:19.618Z,11.87
2022-12-25T15:23:48.484Z,12.12
2022-12-25T15:26:17.877Z,12.65
2022-12-25T15:28:46.988Z,12.89
2022-12-25T15:31:25.211Z,12.94
2022-12-25T15:33:55.259Z,12.59
2022-12-25T15:36:25.065Z,12.45
2022-12-25T15:38:54.842Z,12.76
2022-12-25T15:41:46.475Z,12.76
2022-12-25T15:44:15.346Z,12.72
2022-12-25T15:46:46.221Z,12.76
2022-12-25T15:49:18.691Z,12.65
2022-12-25T15:51:48.350Z,12.64
2022-12-25T15:54:17.089Z,13.06
2022-12-25T15:56:51.166Z,13.04
2022-12-25T15:59:21.524Z,13.03
2022-12-25T16:01:54.334Z,13.16
2022-12-25T16:04:24.923Z,13.12
2022-12-25T16:06:55.635Z,13.08
2022-12-25T16:09:24.485Z,13.21
2022-12-25T16:11:53.633Z,13.20
2022-12-25T16:14:23.543Z,12.47
2022-12-25T16:16:54.375Z,12.81
2022-12-25T16:19:23.299Z,12.82
2022-12-25T16:21:52.080Z,12.58
2022-12-25T16:24:20.553Z,13.05
2022-12-25T16:26:49.222Z,13.19
2022-12-25T16:29:18.596Z,13.18
2022-12-25T16:31:47.262Z,12.57
2022-12-25T16:34:19.795Z,13.13
2022-12-25T16:36:48.283Z,13.17
2022-12-25T16:39:16.864Z,13.24
2022-12-25T16:41:45.518Z,12.73
2022-12-25T16:44:14.994Z,12.00
2022-12-25T16:46:45.479Z,12.51
2022-12-25T16:49:14.084Z,12.79
2022-12-25T16:51:44.381Z,12.35
2022-12-25T16:54:12.915Z,12.67
2022-12-25T16:56:41.642Z,12.69
2022-12-25T16:59:10.511Z,12.32
2022-12-25T17:01:44.279Z,12.60
2022-12-25T17:04:15.419Z,12.86
2022-12-25T17:06:47.681Z,12.94
2022-12-25T17:09:16.410Z,12.28
2022-12-25T17:11:45.003Z,13.06
2022-12-25T17:14:16.344Z,12.26
2022-12-25T17:16:45.572Z,12.81
2022-12-25T17:19:20.617Z,12.46
2022-12-25T17:21:57.536Z,12.26
2022-12-25T17:24:30.886Z,12.79
2022-12-25T17:27:01.109Z,12.59
2022-12-25T17:29:33.040Z,12.74
2022-12-25T17:32:01.835Z,12.84
2022-12-25T17:34:30.813Z,12.77
2022-12-25T17:37:01.048Z,12.73
2022-12-25T17:39:29.901Z,12.69
2022-12-25T17:41:58.878Z,12.29
2022-12-25T17:44:28.068Z,12.97
2022-12-25T17:46:57.533Z,12.97
2022-12-25T17:49:26.878Z,12.58
2022-12-25T17:51:55.642Z,12.58
2022-12-25T17:54:25.900Z,12.04
2022-12-25T17:56:54.854Z,12.36
2022-12-25T17:59:29.000Z,12.66
2022-12-25T18:01:58.205Z,12.57
2022-12-25T18:04:27.274Z,12.47
2022-12-25T18:06:56.187Z,12.75
2022-12-25T18:09:26.181Z,12.78
2022-12-25T18:11:55.083Z,12.76
2022-12-25T18:14:23.786Z,12.74
2022-12-25T18:16:52.986Z,12.69
2022-12-25T18:19:22.839Z,12.36
2022-12-25T18:21:52.652Z,12.11
2022-12-25T18:24:23.052Z,12.48
2022-12-25T18:26:53.713Z,12.66
2022-12-25T18:29:23.177Z,11.98
2022-12-25T18:31:54.319Z,12.43
2022-12-25T18:34:23.505Z,12.54
2022-12-25T18:36:52.008Z,12.39
2022-12-25T18:39:21.139Z,12.18
2022-12-25T18:42:07.576Z,11.89
2022-12-25T18:44:38.479Z,11.76
2022-12-25T18:47:07.368Z,12.03
2022-12-25T18:49:36.697Z,12.21
2022-12-25T18:52:49.712Z,11.99
2022-12-25T18:55:07.666Z,12.02
2022-12-25T18:57:41.161Z,12.25
2022-12-25T19:00:15.748Z,12.30
2022-12-25T19:02:45.515Z,12.58
2022-12-25T19:05:16.856Z,12.17
2022-12-25T19:07:47.475Z,12.37
2022-12-25T19:10:16.988Z,12.59
2022-12-25T19:12:46.696Z,12.57
2022-12-25T19:15:20.299Z,12.74
2022-12-25T19:17:50.880Z,12.08
2022-12-25T19:20:21.360Z,12.66
2022-12-25T19:22:50.845Z,12.58
2022-12-25T19:25:20.568Z,12.20
2022-12-25T19:27:54.570Z,12.28
2022-12-25T19:30:26.033Z,12.79
2022-12-25T19:33:01.795Z,12.69
2022-12-25T19:35:34.181Z,12.80
2022-12-25T19:38:09.907Z,12.87
2022-12-25T19:40:40.665Z,12.47
2022-12-25T19:43:12.693Z,12.81
2022-12-25T19:45:56.376Z,12.73
2022-12-25T19:48:31.275Z,12.80
2022-12-25T19:51:03.851Z,12.76
2022-12-25T19:53:36.433Z,12.73
2022-12-25T19:56:10.651Z,12.85
2022-12-25T19:58:43.008Z,13.11
2022-12-25T20:01:17.985Z,13.17
2022-12-25T20:03:49.603Z,13.23
2022-12-25T20:06:26.495Z,13.17
2022-12-25T20:08:57.775Z,13.20
2022-12-25T20:11:30.003Z,13.20
2022-12-25T20:14:04.317Z,13.22
2022-12-25T20:16:39.094Z,13.26
2022-12-25T20:19:16.119Z,13.30
2022-12-25T20:21:47.435Z,13.37
2022-12-25T20:24:18.119Z,13.37
2022-12-25T20:26:48.065Z,13.39
2022-12-25T20:29:20.751Z,13.10
2022-12-25T20:31:51.747Z,13.23
2022-12-25T20:34:24.639Z,13.39
2022-12-25T20:36:54.012Z,13.26
2022-12-25T20:39:26.300Z,13.32
2022-12-25T20:41:55.853Z,13.04
2022-12-25T20:44:25.486Z,13.14
2022-12-25T20:47:04.198Z,13.20
2022-12-25T20:49:36.458Z,13.16
2022-12-25T20:52:07.654Z,13.25
2022-12-25T20:54:38.087Z,13.12
2022-12-25T20:57:10.362Z,13.28
2022-12-25T20:59:44.259Z,13.05
2022-12-25T21:02:35.337Z,13.08
2022-12-25T21:05:05.797Z,13.22
2022-12-25T21:07:35.914Z,13.19
2022-12-25T21:10:07.655Z,13.01
2022-12-25T21:12:39.923Z,13.04
2022-12-25T21:15:15.667Z,13.18
2022-12-25T21:17:51.687Z,13.21
2022-12-25T21:20:28.285Z,13.00
2022-12-25T21:23:03.813Z,13.11
2022-12-25T21:25:33.954Z,13.22
2022-12-25T21:28:03.252Z,13.07
2022-12-25T21:30:32.067Z,13.11
2022-12-25T21:33:19.946Z,12.82
2022-12-25T21:35:48.832Z,12.84
2022-12-25T21:38:17.805Z,13.09
2022-12-25T21:40:46.951Z,12.99
2022-12-25T21:43:17.964Z,13.04
2022-12-25T21:45:48.160Z,13.11
2022-12-25T21:48:18.232Z,12.89
2022-12-25T21:51:04.119Z,12.97
2022-12-25T21:53:32.833Z,12.85
2022-12-25T21:56:03.097Z,12.95
2022-12-25T21:58:31.887Z,12.76
2022-12-25T22:01:04.426Z,12.78
2022-12-25T22:03:35.060Z,12.98
2022-12-25T22:06:21.837Z,12.99
2022-12-25T22:08:53.786Z,12.95
2022-12-25T22:11:39.879Z,13.04
2022-12-25T22:14:51.558Z,13.05
2022-12-25T22:17:41.575Z,12.84
2022-12-25T22:20:15.540Z,12.84
2022-12-25T22:22:44.578Z,13.02
2022-12-25T22:25:14.787Z,12.89
2022-12-25T22:27:46.292Z,12.87
2022-12-25T22:30:17.946Z,12.91
2022-12-25T22:32:50.679Z,12.80
2022-12-25T22:35:21.885Z,13.19
2022-12-25T22:37:50.768Z,12.89
2022-12-25T22:40:21.382Z,12.94
2022-12-25T22:42:49.884Z,13.02
2022-12-25T22:45:18.762Z,13.11
2022-12-25T22:47:47.356Z,13.02
2022-12-25T22:50:16.714Z,12.87
2022-12-25T22:52:47.336Z,13.06
2022-12-25T22:55:19.548Z,13.11
2022-12-25T22:57:49.270Z,13.13
2022-12-25T23:00:18.234Z,13.26
2022-12-25T23:02:47.119Z,12.91
2022-12-25T23:05:16.156Z,13.10
2022-12-25T23:07:46.105Z,13.09
2022-12-25T23:10:14.869Z,13.03
2022-12-25T23:13:00.812Z,12.89
2022-12-25T23:15:29.487Z,12.87
2022-12-25T23:18:15.461Z,12.60
2022-12-25T23:21:01.513Z,12.82
2022-12-25T23:23:49.051Z,12.54
2022-12-25T23:26:19.727Z,12.58
2022-12-25T23:29:14.607Z,12.87
2022-12-25T23:31:43.904Z,12.89
2022-12-25T23:34:12.693Z,12.83
2022-12-25T23:36:41.112Z,12.98
2022-12-25T23:39:11.045Z,12.58
2022-12-25T23:41:40.428Z,12.81
2022-12-25T23:44:10.477Z,12.73
2022-12-25T23:46:39.664Z,12.34
2022-12-25T23:49:09.809Z,12.53
2022-12-25T23:51:43.105Z,12.62
2022-12-25T23:54:16.082Z,12.48
2022-12-25T23:56:45.012Z,12.23
2022-12-25T23:59:14.271Z,12.39
